KNQX/NQX METAR and TAF weather

Enter ICAO airport designator
Station Type Date Time Source
KNQX METAR 2020/07/11 17:53 UTC NOAA

KNQX 111753Z 29011KT 10SM FEW031 BKN180 OVC250 33/24 A2999 RMK AO2 SLP154 CB DSNT NE T2 SET T03330244 10344 20311 57007 $


Station Type Date Time Source
KNQX Decoded METAR 2020/07/11 17:53 UTC NOAA

KEY WEST NAVAL AIR STATION, FL, United States (KNQX) 24-35N 81-41W 6M
Jul 11, 2020 - 01:53 PM EDT / 2020.07.11 1753 UTC
Wind: from the WNW (290 degrees) at 13 MPH (11 KT):0
Visibility: 10 mile(s):0
Sky conditions: overcast
Weather: Cumulonimbus clouds observed
Temperature: 91.9 F (33.3 C)
Heat index: 103.8 F (39.9 C):1
Dew Point: 75.9 F (24.4 C)
Relative Humidity: 59%
Pressure (altimeter): 29.99 in. Hg (1015 hPa)
Pressure tendency: 0.02 inches (0.7 hPa) lower than three hours ago
ob: KNQX 111753Z 29011KT 10SM FEW031 BKN180 OVC250 33/24 A2999 RMK AO2 SLP154 CB DSNT NE T2 SET T03330244 10344 20311 57007
cycle: 18

Station Type Date Time Source
KNQX TAF 2020/07/11 17:57 UTC NOAA

TAF
AMD KNQX 1117/1215 28011KT 9999 VCTS FEW020CB BKN250 QNH2993INS
FM120000 28007KT 9999 FEW020CB SCT100 BKN250 QNH2990INS
FM120500 23005KT 9999 FEW020 SCT250 QNH2992INS
FM121400 22007KT 9999 FEW020 SCT250 QNH2991INS T35/1119Z T29/1210Z
AMD 1655Z FN00085

Example: see airport list